Time;durP1;ratioP1;P1;durP2;ratioP2;P2;SDS_P1;SDS_P2;PMS_P1;PMS_P2;Temp;Humidity;BMP_temperature;BMP_pressure;BME280_temperature;BME280_humidity;BME280_pressure;Samples;Min_cycle;Max_cycle;Signal;HPM_P1;HPM_P2
2022/06/01 00:00:49;;;;;;;72.93;67.60;;;;;;;9.82;100.00;101556.69;1936666;73;26250;-70
2022/06/01 00:03:20;;;;;;;67.83;62.73;;;;;;;9.79;100.00;101553.06;1940601;73;26281;-71
2022/06/01 00:05:53;;;;;;;69.83;64.50;;;;;;;9.91;100.00;101552.34;1936018;73;26234;-70
2022/06/01 00:11:29;;;;;;;66.80;61.47;;;;;;;9.65;100.00;101555.96;2052973;69;32597;-70
2022/06/01 00:13:59;;;;;;;67.60;62.33;;;;;;;9.43;100.00;101564.33;1950397;73;26231;-69
2022/06/01 00:16:30;;;;;;;63.13;58.00;;;;;;;9.39;100.00;101556.23;2017091;71;26261;-69
2022/06/01 00:19:01;;;;;;;62.67;57.57;;;;;;;9.51;100.00;101552.77;2016605;71;26191;-69
2022/06/01 00:21:34;;;;;;;62.07;57.13;;;;;;;9.55;100.00;101548.37;2013626;70;26258;-70
2022/06/01 00:24:04;;;;;;;63.77;58.77;;;;;;;9.37;100.00;101549.30;2026469;70;26537;-68
2022/06/01 00:26:35;;;;;;;67.47;62.37;;;;;;;9.45;100.00;101544.12;2018616;70;26728;-68
2022/06/01 00:29:05;;;;;;;68.23;62.93;;;;;;;9.76;100.00;101539.69;2009868;70;26187;-70
2022/06/01 00:31:35;;;;;;;70.10;64.80;;;;;;;10.32;100.00;101543.81;2007020;70;26676;-68
2022/06/01 00:34:05;;;;;;;70.80;65.33;;;;;;;10.37;100.00;101543.85;2016698;70;26339;-68
2022/06/01 00:36:35;;;;;;;68.97;63.60;;;;;;;10.48;100.00;101539.22;2022374;70;26316;-69
2022/06/01 00:39:05;;;;;;;72.43;66.63;;;;;;;10.56;100.00;101532.31;2011499;70;26264;-68
2022/06/01 00:41:36;;;;;;;74.57;68.87;;;;;;;10.64;100.00;101536.81;2016678;70;26219;-68
2022/06/01 00:44:06;;;;;;;76.40;70.63;;;;;;;10.71;100.00;101533.78;2016701;70;26664;-68
2022/06/01 00:46:37;;;;;;;73.93;68.33;;;;;;;10.71;100.00;101536.01;2015465;70;26267;-68
2022/06/01 00:49:10;;;;;;;76.70;71.00;;;;;;;10.77;100.00;101541.89;2019134;70;26214;-69
2022/06/01 00:51:41;;;;;;;81.00;75.40;;;;;;;10.78;100.00;101538.56;2016199;71;26252;-68
2022/06/01 00:54:12;;;;;;;83.90;77.90;;;;;;;10.76;100.00;101540.20;2001443;70;26215;-68
2022/06/01 00:56:45;;;;;;;79.43;73.83;;;;;;;10.71;100.00;101538.78;2022759;70;26256;-70
2022/06/01 00:59:18;;;;;;;76.33;70.77;;;;;;;10.78;100.00;101537.17;2016674;70;26335;-68
2022/06/01 01:01:50;;;;;;;77.70;72.00;;;;;;;10.75;100.00;101538.53;2001904;70;26211;-68
2022/06/01 01:04:22;;;;;;;77.90;72.30;;;;;;;10.76;100.00;101540.20;2016100;70;26206;-68
2022/06/01 01:06:52;;;;;;;74.63;69.07;;;;;;;10.75;100.00;101544.09;2001219;70;26225;-70
2022/06/01 01:09:22;;;;;;;73.53;67.83;;;;;;;10.77;100.00;101534.94;1972090;72;26224;-70
2022/06/01 01:11:55;;;;;;;79.40;73.90;;;;;;;10.78;100.00;101547.70;1980001;72;26765;-69
2022/06/01 01:14:28;;;;;;;81.80;76.20;;;;;;;10.53;100.00;101552.27;1980083;72;26285;-70
2022/06/01 01:17:00;;;;;;;80.70;75.30;;;;;;;10.37;100.00;101550.80;1980118;72;26755;-69
2022/06/01 01:22:42;;;;;;;73.27;67.77;;;;;;;10.31;100.00;101545.48;2036744;69;32677;-70
2022/06/01 01:25:25;;;;;;;79.30;73.77;;;;;;;10.34;100.00;101551.33;2013373;70;26222;-70
2022/06/01 01:27:58;;;;;;;76.03;70.63;;;;;;;10.32;100.00;101549.91;2012135;70;26227;-69
2022/06/01 01:30:36;;;;;;;72.90;67.40;;;;;;;10.45;100.00;101548.06;2010377;70;26190;-69
2022/06/01 01:33:09;;;;;;;67.17;61.97;;;;;;;10.42;100.00;101552.22;2009477;70;26212;-70
2022/06/01 01:35:40;;;;;;;66.83;61.93;;;;;;;10.41;100.00;101553.31;1937735;74;26615;-69
2022/06/01 01:38:14;;;;;;;67.27;62.17;;;;;;;10.27;100.00;101552.67;1931958;73;26285;-69
2022/06/01 01:40:44;;;;;;;73.63;68.53;;;;;;;10.33;100.00;101558.53;1939482;73;26710;-69
2022/06/01 01:43:14;;;;;;;68.13;63.13;;;;;;;10.27;100.00;101559.04;1943809;73;26750;-70
2022/06/01 01:45:45;;;;;;;64.47;59.47;;;;;;;10.16;100.00;101562.00;1973794;72;26632;-70
2022/06/01 01:48:17;;;;;;;65.43;60.43;;;;;;;10.25;100.00;101557.64;1933975;73;26208;-71
2022/06/01 01:50:47;;;;;;;67.10;62.10;;;;;;;10.23;100.00;101558.45;1934577;73;26213;-69
2022/06/01 01:53:17;;;;;;;65.93;60.93;;;;;;;10.22;100.00;101557.63;1969629;72;26193;-69
2022/06/01 01:55:53;;;;;;;69.70;64.57;;;;;;;10.22;100.00;101550.69;1923674;73;26172;-71
2022/06/01 01:58:27;;;;;;;65.77;60.57;;;;;;;10.35;100.00;101560.50;1935469;73;26674;-70
2022/06/01 02:01:00;;;;;;;66.20;61.10;;;;;;;10.36;100.00;101559.37;2014098;70;26214;-71
2022/06/01 02:03:35;;;;;;;67.60;62.53;;;;;;;10.32;100.00;101554.08;1934461;73;26212;-69
2022/06/01 02:06:08;;;;;;;67.30;62.10;;;;;;;10.18;100.00;101548.72;1945540;73;26354;-69
2022/06/01 02:08:46;;;;;;;65.47;60.40;;;;;;;10.17;100.00;101555.36;1895598;74;26226;-70
2022/06/01 02:14:07;;;;;;;66.63;61.63;;;;;;;10.22;100.00;101542.36;1987151;72;26314;-71
2022/06/01 02:16:41;;;;;;;68.20;62.70;;;;;;;10.27;100.00;101538.80;1913934;74;26703;-69
2022/06/01 02:19:14;;;;;;;67.70;62.60;;;;;;;10.24;100.00;101535.98;1971607;72;26314;-71
2022/06/01 02:21:45;;;;;;;72.13;67.03;;;;;;;10.32;100.00;101542.97;1912996;73;26258;-71
2022/06/01 02:24:17;;;;;;;72.43;67.40;;;;;;;10.22;100.00;101547.08;1911570;74;26193;-67
2022/06/01 02:26:50;;;;;;;67.60;62.40;;;;;;;10.08;100.00;101546.65;1909975;74;26686;-68
2022/06/01 02:29:22;;;;;;;70.57;65.37;;;;;;;10.12;100.00;101546.41;1909917;74;26196;-67
2022/06/01 02:31:53;;;;;;;69.70;64.47;;;;;;;10.13;100.00;101552.80;1909697;74;26184;-68
2022/06/01 02:34:24;;;;;;;66.03;60.97;;;;;;;10.12;100.00;101543.62;1909299;75;26217;-69
2022/06/01 02:36:54;;;;;;;73.97;68.80;;;;;;;10.18;100.00;101549.55;1909318;74;26192;-69
2022/06/01 02:39:26;;;;;;;70.33;65.13;;;;;;;10.16;100.00;101540.64;1909327;75;26227;-70
2022/06/01 02:42:28;;;;;;;72.33;67.13;;;;;;;10.12;100.00;101539.47;1909390;74;26354;-67
2022/06/01 02:45:00;;;;;;;69.60;64.50;;;;;;;10.20;100.00;101544.55;1909329;74;26672;-70
2022/06/01 02:47:32;;;;;;;70.90;65.70;;;;;;;10.15;100.00;101540.86;1909295;75;26691;-69
2022/06/01 02:50:03;;;;;;;70.43;65.33;;;;;;;9.91;100.00;101537.08;1909331;74;26679;-68
2022/06/01 02:52:33;;;;;;;69.17;64.23;;;;;;;9.85;100.00;101531.73;1909276;74;26238;-70
2022/06/01 02:55:05;;;;;;;69.77;64.77;;;;;;;9.74;100.00;101540.52;1909412;74;26677;-68
2022/06/01 02:57:37;;;;;;;71.50;66.37;;;;;;;9.77;100.00;101539.98;1909298;74;26224;-70
2022/06/01 03:03:16;;;;;;;66.17;61.37;;;;;;;9.81;100.00;101535.58;2052305;69;32610;-69
2022/06/01 03:05:46;;;;;;;69.23;64.23;;;;;;;9.81;100.00;101546.68;2013639;70;26659;-70
2022/06/01 03:08:16;;;;;;;68.67;63.73;;;;;;;9.81;100.00;101540.30;1982145;71;26225;-70
2022/06/01 03:10:48;;;;;;;69.37;64.33;;;;;;;9.71;100.00;101539.67;1961618;72;26200;-70
2022/06/01 03:13:19;;;;;;;67.53;62.53;;;;;;;9.70;100.00;101537.15;1984560;72;26229;-70
2022/06/01 03:15:50;;;;;;;69.70;64.70;;;;;;;9.56;100.00;101543.11;1978406;72;26206;-70
2022/06/01 03:18:20;;;;;;;69.43;64.43;;;;;;;9.41;100.00;101542.94;1981912;72;26751;-71
2022/06/01 03:20:50;;;;;;;67.77;62.80;;;;;;;9.18;100.00;101545.17;1980119;72;26220;-70
2022/06/01 03:23:20;;;;;;;70.63;65.67;;;;;;;9.30;100.00;101547.25;1980187;72;26217;-70
2022/06/01 03:25:50;;;;;;;74.10;68.90;;;;;;;9.65;100.00;101547.64;1975866;72;26695;-69
2022/06/01 03:28:21;;;;;;;73.50;68.10;;;;;;;9.65;100.00;101543.48;1978250;72;26204;-69
2022/06/01 03:30:51;;;;;;;70.70;65.40;;;;;;;9.73;100.00;101544.39;1980107;72;26333;-69
2022/06/01 03:33:22;;;;;;;74.57;69.27;;;;;;;9.67;100.00;101554.33;1986669;72;26702;-69
2022/06/01 03:35:53;;;;;;;77.20;71.83;;;;;;;9.94;100.00;101549.57;1983644;72;26176;-69
2022/06/01 03:38:23;;;;;;;72.33;67.03;;;;;;;10.00;100.00;101548.53;1980284;72;26197;-71
2022/06/01 03:40:53;;;;;;;77.13;71.83;;;;;;;9.94;100.00;101545.41;1976283;72;26731;-69
2022/06/01 03:43:23;;;;;;;78.90;73.60;;;;;;;10.04;100.00;101539.95;1980062;72;26704;-70
2022/06/01 03:45:58;;;;;;;82.00;76.53;;;;;;;10.05;100.00;101545.80;1979408;72;26725;-71
2022/06/01 03:51:36;;;;;;;84.47;78.47;;;;;;;10.06;100.00;101539.13;2060894;69;32634;-70
2022/06/01 03:54:06;;;;;;;87.37;81.27;;;;;;;9.95;100.00;101543.77;1939498;73;26770;-69
2022/06/01 03:56:37;;;;;;;85.80;79.60;;;;;;;9.91;100.00;101544.02;1930943;73;26221;-69
2022/06/01 03:59:07;;;;;;;89.20;82.90;;;;;;;9.79;100.00;101550.28;1963864;72;26226;-69
2022/06/01 04:01:37;;;;;;;90.60;84.40;;;;;;;9.64;100.00;101545.96;1845759;73;934811;-70
2022/06/01 04:04:07;;;;;;;92.97;86.67;;;;;;;9.59;100.00;101550.06;1797571;80;26232;-69
2022/06/01 04:09:45;;;;;;;88.87;82.50;;;;;;;9.94;100.00;101535.70;2034226;69;33105;-69
2022/06/01 04:12:15;;;;;;;88.27;81.97;;;;;;;9.96;100.00;101546.00;1938312;73;26301;-69
2022/06/01 04:14:45;;;;;;;85.43;79.27;;;;;;;9.93;100.00;101543.73;1930987;73;26318;-70
2022/06/01 04:17:15;;;;;;;87.00;80.87;;;;;;;9.93;100.00;101544.57;1966007;73;26187;-70
2022/06/01 04:19:46;;;;;;;86.80;80.80;;;;;;;9.84;100.00;101541.98;1927402;73;26212;-71
2022/06/01 04:22:17;;;;;;;90.33;84.03;;;;;;;9.83;100.00;101540.34;1933772;73;26318;-69
2022/06/01 04:24:47;;;;;;;85.20;79.10;;;;;;;9.94;100.00;101542.63;2009071;70;26212;-70
2022/06/01 04:27:17;;;;;;;86.40;80.13;;;;;;;9.90;100.00;101547.04;2013688;70;26705;-70
2022/06/01 04:29:47;;;;;;;88.67;82.33;;;;;;;9.93;100.00;101544.57;2011168;70;26300;-69
2022/06/01 04:32:21;;;;;;;85.27;79.17;;;;;;;10.02;100.00;101551.86;2018847;70;26279;-69
2022/06/01 04:34:51;;;;;;;82.97;76.97;;;;;;;10.01;100.00;101548.82;2014734;70;26270;-70
2022/06/01 04:37:21;;;;;;;83.70;77.60;;;;;;;10.16;100.00;101555.06;2010944;70;26195;-69
2022/06/01 04:39:51;;;;;;;83.23;77.03;;;;;;;10.22;100.00;101553.47;2023887;70;26250;-69
2022/06/01 04:42:21;;;;;;;85.23;79.23;;;;;;;10.27;100.00;101550.70;2016212;70;26223;-70
2022/06/01 04:44:51;;;;;;;84.43;78.43;;;;;;;10.21;100.00;101552.34;2015961;70;26304;-70
2022/06/01 04:47:22;;;;;;;82.83;76.73;;;;;;;10.20;100.00;101554.27;2015685;70;26266;-69
2022/06/01 04:49:53;;;;;;;83.60;77.50;;;;;;;10.25;100.00;101550.70;2016639;70;26393;-69
2022/06/01 04:52:23;;;;;;;71.20;66.00;;;;;;;10.30;100.00;101554.36;2012115;70;26215;-69
2022/06/01 04:54:53;;;;;;;72.17;67.17;;;;;;;10.41;100.00;101550.55;2014450;70;26234;-69
2022/06/01 04:57:23;;;;;;;75.80;70.73;;;;;;;10.35;100.00;101552.17;2021308;70;26267;-69
2022/06/01 04:59:53;;;;;;;73.00;67.80;;;;;;;10.29;100.00;101555.45;2016610;70;26226;-71
2022/06/01 05:02:23;;;;;;;76.13;70.97;;;;;;;10.34;100.00;101554.11;2012734;70;26293;-69
2022/06/01 05:04:54;;;;;;;78.87;73.67;;;;;;;10.35;100.00;101557.73;2008300;70;26217;-69
2022/06/01 05:07:24;;;;;;;77.23;72.20;;;;;;;10.33;100.00;101558.53;1988597;70;26222;-69
2022/06/01 05:09:55;;;;;;;70.30;65.33;;;;;;;10.34;100.00;101558.83;1984653;70;26206;-69
2022/06/01 05:12:25;;;;;;;71.87;66.77;;;;;;;10.38;100.00;101557.19;1979959;72;26265;-70
2022/06/01 05:14:55;;;;;;;72.93;67.80;;;;;;;10.41;100.00;101555.26;1980053;72;26283;-71
2022/06/01 05:17:25;;;;;;;74.53;69.33;;;;;;;10.35;100.00;101561.34;1979975;72;26598;-69
2022/06/01 05:19:55;;;;;;;71.10;66.10;;;;;;;10.38;100.00;101560.80;1979602;72;26163;-70
2022/06/01 05:22:26;;;;;;;72.37;67.37;;;;;;;10.43;100.00;101566.95;1979337;72;26169;-70
2022/06/01 05:24:56;;;;;;;72.17;67.17;;;;;;;10.42;100.00;101561.95;1979331;72;26184;-69
2022/06/01 05:27:26;;;;;;;73.10;67.73;;;;;;;10.23;100.00;101567.61;1979302;72;26320;-69
2022/06/01 05:29:56;;;;;;;74.10;68.47;;;;;;;10.30;100.00;101573.80;1979221;72;26624;-69
2022/06/01 05:32:26;;;;;;;71.83;66.73;;;;;;;10.15;100.00;101573.66;1979321;72;26338;-70
2022/06/01 05:34:56;;;;;;;72.83;67.53;;;;;;;10.19;100.00;101576.73;1979430;72;26246;-70
2022/06/01 05:37:27;;;;;;;76.00;70.80;;;;;;;10.15;100.00;101570.01;1979383;72;26246;-70
2022/06/01 05:39:57;;;;;;;77.67;72.27;;;;;;;10.24;100.00;101567.06;1979431;72;26271;-70
2022/06/01 05:42:27;;;;;;;72.40;67.33;;;;;;;10.39;100.00;101576.37;1979522;72;26169;-69
2022/06/01 05:44:57;;;;;;;73.27;68.17;;;;;;;10.56;100.00;101569.81;1979471;72;26365;-70
2022/06/01 05:47:27;;;;;;;72.93;67.83;;;;;;;10.56;100.00;101570.66;1979350;72;26254;-70
2022/06/01 05:49:57;;;;;;;71.33;66.33;;;;;;;10.59;100.00;101567.88;1979499;72;26328;-69
2022/06/01 05:52:28;;;;;;;70.50;65.57;;;;;;;10.67;100.00;101572.93;1979273;72;26167;-68
2022/06/01 05:54:58;;;;;;;68.77;63.87;;;;;;;10.70;100.00;101569.05;1979289;72;26251;-71
2022/06/01 05:57:28;;;;;;;69.03;64.13;;;;;;;10.80;100.00;101574.69;1979381;72;26206;-71
2022/06/01 05:59:58;;;;;;;72.63;67.43;;;;;;;10.68;100.00;101578.23;1979413;72;26708;-70
2022/06/01 06:02:29;;;;;;;69.83;64.93;;;;;;;10.61;100.00;101583.16;1979312;72;26640;-70
2022/06/01 06:04:59;;;;;;;71.00;66.03;;;;;;;10.71;100.00;101587.95;1979242;72;26294;-69
2022/06/01 06:07:29;;;;;;;71.87;66.77;;;;;;;10.88;100.00;101587.23;1979144;72;26682;-70
2022/06/01 06:09:59;;;;;;;71.90;66.63;;;;;;;10.82;100.00;101589.71;1979191;72;26749;-69
2022/06/01 06:12:30;;;;;;;68.87;63.87;;;;;;;10.95;100.00;101592.02;1979369;72;26173;-70
2022/06/01 06:15:00;;;;;;;69.90;64.97;;;;;;;11.04;100.00;101595.93;1979350;72;26171;-70
2022/06/01 06:17:30;;;;;;;69.50;64.53;;;;;;;11.16;100.00;101595.18;1979235;72;26648;-70
2022/06/01 06:20:00;;;;;;;68.20;63.30;;;;;;;11.22;100.00;101591.84;1979407;72;26181;-72
2022/06/01 06:22:31;;;;;;;65.57;60.87;;;;;;;11.43;100.00;101588.03;1979309;72;26313;-69
2022/06/01 06:25:01;;;;;;;67.60;62.70;;;;;;;11.63;100.00;101595.08;1979316;72;26255;-75
2022/06/01 06:27:31;;;;;;;66.43;61.73;;;;;;;11.92;100.00;101589.03;1979442;72;26701;-73
2022/06/01 06:30:01;;;;;;;67.93;63.23;;;;;;;11.94;100.00;101593.20;1980122;72;26192;-73
2022/06/01 06:32:32;;;;;;;66.47;61.67;;;;;;;11.90;100.00;101588.45;1979212;72;26267;-75
2022/06/01 06:35:02;;;;;;;67.33;62.73;;;;;;;12.05;100.00;101594.06;1979294;72;26180;-75
2022/06/01 06:37:32;;;;;;;67.67;63.07;;;;;;;12.04;100.00;101596.00;1979432;72;26205;-75
2022/06/01 06:40:03;;;;;;;66.00;61.90;;;;;;;12.05;100.00;101591.28;1979255;72;26480;-73
2022/06/01 06:42:33;;;;;;;67.37;62.67;;;;;;;12.21;100.00;101593.80;1979391;72;26189;-73
2022/06/01 06:45:05;;;;;;;68.07;63.37;;;;;;;12.35;100.00;101598.25;1979364;72;26668;-73
2022/06/01 06:47:35;;;;;;;70.00;65.40;;;;;;;12.35;100.00;101601.04;1979238;72;26241;-71
2022/06/01 06:50:09;;;;;;;67.53;63.17;;;;;;;12.40;100.00;101596.87;1979217;72;26205;-73
2022/06/01 06:52:40;;;;;;;67.20;63.00;;;;;;;12.35;100.00;101601.04;1979408;72;26265;-72
2022/06/01 06:55:11;;;;;;;66.80;62.37;;;;;;;12.33;100.00;101601.86;1979260;72;26616;-72
2022/06/01 06:57:43;;;;;;;65.73;60.90;;;;;;;12.33;100.00;101601.86;1979396;72;26909;-72
2022/06/01 07:00:16;;;;;;;65.13;60.73;;;;;;;12.37;100.00;101603.53;1979309;72;26292;-73
2022/06/01 07:02:46;;;;;;;67.87;63.37;;;;;;;12.50;100.00;101611.33;1979170;72;26180;-71
2022/06/01 07:06:08;;;;;;;69.20;64.40;;;;;;;12.57;100.00;101613.30;1979138;72;26285;-73
2022/06/01 07:07:48;;;;;;;68.47;63.67;;;;;;;12.56;100.00;101620.81;1975413;71;26204;-71
2022/06/01 07:10:18;;;;;;;67.10;62.40;;;;;;;12.62;100.00;101624.45;1979129;72;26216;-71
2022/06/01 07:12:49;;;;;;;68.53;64.03;;;;;;;12.61;100.00;101626.95;1979117;72;26286;-69
2022/06/01 07:15:20;;;;;;;67.47;62.97;;;;;;;12.52;100.00;101629.45;1979282;72;26246;-71
2022/06/01 07:17:51;;;;;;;70.37;65.67;;;;;;;12.60;100.00;101631.69;1979180;72;26168;-69
2022/06/01 07:20:21;;;;;;;66.67;62.27;;;;;;;12.61;100.00;101633.92;1979247;72;26335;-71
2022/06/01 07:22:52;;;;;;;66.90;62.70;;;;;;;12.54;100.00;101636.97;1979218;72;26169;-69
2022/06/01 07:25:22;;;;;;;67.90;63.53;;;;;;;12.71;100.00;101645.88;1979184;72;26238;-72
2022/06/01 07:27:52;;;;;;;65.27;60.87;;;;;;;12.67;100.00;101647.55;1979237;72;26184;-70
2022/06/01 07:30:23;;;;;;;68.30;63.60;;;;;;;12.71;100.00;101647.27;1979213;72;26621;-72
2022/06/01 07:32:53;;;;;;;65.23;61.03;;;;;;;12.66;100.00;101650.05;1979175;72;26246;-72
2022/06/01 07:35:23;;;;;;;67.90;63.50;;;;;;;12.68;100.00;101645.05;1979326;72;26177;-69
2022/06/01 07:43:29;;;;;;;67.93;63.60;;;;;;;12.58;100.00;101656.20;1979270;72;26217;-69
2022/06/01 07:46:00;;;;;;;64.77;60.43;;;;;;;12.51;100.00;101652.02;1979422;72;26593;-72
2022/06/01 07:48:31;;;;;;;64.63;60.13;;;;;;;12.60;100.00;101655.93;1979280;72;26160;-72
2022/06/01 07:51:01;;;;;;;67.80;63.10;;;;;;;12.87;100.00;101653.69;1979176;72;26231;-68
2022/06/01 07:53:31;;;;;;;67.13;62.53;;;;;;;12.87;100.00;101651.45;1979193;72;26740;-72
2022/06/01 07:56:01;;;;;;;66.67;62.07;;;;;;;13.12;100.00;101652.83;1979162;72;26184;-72
2022/06/01 07:58:31;;;;;;;64.20;60.03;;;;;;;13.36;100.00;101650.23;1979246;72;26665;-69
2022/06/01 08:01:02;;;;;;;67.70;63.47;;;;;;;13.16;100.00;101642.77;1979223;72;26689;-73
2022/06/01 08:06:39;;;;;;;67.87;63.67;;;;;;;13.12;100.00;101650.04;2031661;69;32794;-72
2022/06/01 08:09:10;;;;;;;66.27;62.07;;;;;;;13.34;100.00;101653.33;1909917;74;26636;-72
2022/06/01 08:14:31;;;;;;;63.80;60.00;;;;;;;13.45;100.00;101653.55;1892620;74;26231;-68
2022/06/01 08:17:01;;;;;;;64.73;60.63;;;;;;;13.61;100.00;101645.94;1975743;72;26687;-71
2022/06/01 08:19:33;;;;;;;66.07;61.87;;;;;;;13.83;100.00;101646.95;1912069;74;26248;-69
2022/06/01 08:22:03;;;;;;;68.73;64.43;;;;;;;13.72;100.00;101645.34;1882674;76;26211;-69
2022/06/01 08:24:33;;;;;;;63.50;59.67;;;;;;;13.81;100.00;101650.61;1937454;73;26294;-71
2022/06/01 08:30:12;;;;;;;64.63;60.73;;;;;;;13.88;100.00;101637.98;2061027;69;33036;-69
2022/06/01 08:32:43;;;;;;;63.20;59.50;;;;;;;13.93;100.00;101647.73;1946538;73;26222;-71
2022/06/01 08:35:16;;;;;;;60.03;56.43;;;;;;;13.95;100.00;101644.64;2011732;70;26315;-72
2022/06/01 08:37:47;;;;;;;63.80;60.20;;;;;;;13.86;100.00;101643.61;1940774;73;26192;-72
2022/06/01 08:40:21;;;;;;;59.90;56.50;;;;;;;13.86;100.00;101646.40;1941539;73;26208;-73
2022/06/01 08:42:55;;;;;;;62.53;59.13;;;;;;;14.06;100.00;101646.27;1950134;73;26265;-75
2022/06/01 08:45:27;;;;;;;65.80;61.87;;;;;;;14.27;100.00;101647.80;2016215;70;26301;-74
2022/06/01 08:47:58;;;;;;;60.80;57.20;;;;;;;14.62;100.00;101652.30;2006197;70;26283;-75
2022/06/01 08:50:31;;;;;;;64.60;60.90;;;;;;;14.83;100.00;101640.36;2022368;70;26172;-74
2022/06/01 08:53:03;;;;;;;65.33;60.23;;;;;;;15.12;100.00;101640.34;1934525;73;26208;-75
2022/06/01 08:55:38;;;;;;;63.70;59.40;;;;;;;15.77;100.00;101635.94;1934771;73;26674;-75
2022/06/01 08:58:12;;;;;;;65.97;62.10;;;;;;;16.00;100.00;101637.02;2006291;70;26329;-76
2022/06/01 09:00:46;;;;;;;66.20;62.27;;;;;;;15.98;100.00;101638.72;2030298;70;26250;-74
2022/06/01 09:03:21;;;;;;;66.03;61.83;;;;;;;15.89;100.00;101641.92;2019952;70;26280;-74
2022/06/01 09:05:56;;;;;;;65.07;60.77;;;;;;;16.70;100.00;101641.52;2012733;70;26209;-72
2022/06/01 09:11:38;;;;;;;53.67;50.77;;;;;;;15.32;100.00;101635.34;2049266;69;32669;-71
2022/06/01 09:14:12;;;;;;;56.67;53.60;;;;;;;14.91;100.00;101650.91;1932430;73;26204;-71
2022/06/01 09:16:46;;;;;;;54.03;51.20;;;;;;;15.26;100.00;101651.11;2015868;70;26284;-70
2022/06/01 09:19:19;;;;;;;53.20;50.40;;;;;;;15.23;100.00;101649.72;2012583;70;26286;-70
2022/06/01 09:24:46;;;;;;;60.87;57.37;;;;;;;15.03;100.00;101656.94;2014442;70;26714;-70
2022/06/01 09:27:18;;;;;;;55.13;52.30;;;;;;;15.21;100.00;101660.95;2016210;70;26673;-73
2022/06/01 09:29:50;;;;;;;55.43;52.43;;;;;;;15.19;100.00;101655.64;2023718;70;26356;-73
2022/06/01 09:32:30;;;;;;;56.23;53.23;;;;;;;15.14;100.00;101657.13;2013247;70;26257;-70
2022/06/01 09:35:04;;;;;;;58.67;55.37;;;;;;;15.34;100.00;101663.88;2010685;70;26283;-73
2022/06/01 09:37:37;;;;;;;61.57;58.13;;;;;;;15.54;100.00;101658.62;2010807;70;26719;-71
2022/06/01 09:40:18;;;;;;;59.93;56.63;;;;;;;15.52;100.00;101657.27;2016533;70;26176;-71
2022/06/01 09:42:52;;;;;;;60.77;57.50;;;;;;;15.36;100.00;101656.00;2014034;70;26651;-70
2022/06/01 09:45:27;;;;;;;56.83;53.93;;;;;;;15.66;100.00;101666.03;2012445;70;26682;-70
2022/06/01 09:48:11;;;;;;;56.90;54.00;;;;;;;15.44;100.00;101668.54;2033326;70;26195;-73
2022/06/01 09:50:44;;;;;;;55.37;52.60;;;;;;;15.31;100.00;101674.28;2023061;70;26315;-70
2022/06/01 09:53:18;;;;;;;57.00;54.00;;;;;;;15.20;100.00;101674.67;2021648;70;26221;-73
2022/06/01 09:55:57;;;;;;;51.90;49.40;;;;;;;15.18;100.00;101672.75;2016220;70;26668;-73
2022/06/01 10:07:07;;;;;;;47.30;44.90;;;;;;;15.11;100.00;101676.44;2003810;70;26244;-70
2022/06/01 10:09:37;;;;;;;50.43;47.93;;;;;;;14.97;100.00;101675.73;1979133;72;26658;-72
2022/06/01 10:12:22;;;;;;;59.00;55.90;;;;;;;15.02;100.00;101675.69;1979597;72;26289;-70
2022/06/01 10:18:05;;;;;;;47.90;45.60;;;;;;;15.12;100.00;101676.16;2060425;69;32612;-72
2022/06/01 10:23:47;;;;;;;50.80;48.30;;;;;;;15.30;100.00;101678.21;2052766;69;33111;-73
2022/06/01 10:26:20;;;;;;;46.33;44.13;;;;;;;15.28;100.00;101681.02;1941398;73;26213;-73
2022/06/01 10:28:54;;;;;;;54.23;51.50;;;;;;;15.24;100.00;101682.18;1937080;73;26220;-74
2022/06/01 10:31:31;;;;;;;54.30;51.70;;;;;;;15.38;100.00;101679.52;1965720;72;26299;-73
2022/06/01 10:34:04;;;;;;;51.97;49.47;;;;;;;15.39;100.00;101692.39;1936327;73;26235;-74
2022/06/01 10:36:42;;;;;;;58.53;55.43;;;;;;;15.38;100.00;101690.16;2015148;70;26647;-73
2022/06/01 10:39:17;;;;;;;50.27;47.77;;;;;;;15.63;100.00;101689.05;1947694;73;26228;-73
2022/06/01 10:41:52;;;;;;;51.63;49.13;;;;;;;15.58;100.00;101688.27;1947542;73;26343;-73
2022/06/01 10:44:26;;;;;;;46.67;44.47;;;;;;;15.56;100.00;101694.19;1940944;73;26259;-73
2022/06/01 10:46:59;;;;;;;38.03;36.30;;;;;;;15.52;100.00;101693.11;1933853;73;26257;-73
2022/06/01 10:49:36;;;;;;;38.90;37.10;;;;;;;15.47;100.00;101686.14;1965861;73;26716;-74
2022/06/01 10:52:11;;;;;;;44.77;42.33;;;;;;;15.56;100.00;101697.55;1937444;74;26296;-74
2022/06/01 10:54:46;;;;;;;50.13;47.60;;;;;;;15.90;100.00;101687.03;1933932;73;26219;-74
2022/06/01 10:57:20;;;;;;;42.30;40.23;;;;;;;16.29;100.00;101681.98;1933777;73;26750;-74
2022/06/01 10:59:51;;;;;;;36.87;35.17;;;;;;;16.22;100.00;101691.89;1937495;73;26214;-74
2022/06/01 11:02:35;;;;;;;30.67;29.37;;;;;;;16.39;100.00;101687.98;1953756;73;26298;-73
2022/06/01 11:05:23;;;;;;;36.87;35.27;;;;;;;16.61;100.00;101687.39;1941676;73;26253;-72
2022/06/01 11:08:23;;;;;;;35.80;34.10;;;;;;;16.62;100.00;101686.27;1937394;73;26335;-73
2022/06/01 11:11:01;;;;;;;31.70;30.20;;;;;;;16.73;100.00;101694.20;1937960;74;24600;-74
2022/06/01 11:16:56;;;;;;;33.40;31.90;;;;;;;16.48;100.00;101687.56;2037281;69;32681;-73
2022/06/01 11:19:42;;;;;;;34.30;32.80;;;;;;;16.39;100.00;101697.23;1941712;73;26415;-73
2022/06/01 11:25:05;;;;;;;54.77;52.07;;;;;;;16.13;100.00;101707.15;2029302;69;32775;-73
2022/06/01 11:27:43;;;;;;;69.00;64.90;;;;;;;15.70;100.00;101727.92;2014732;70;26264;-74
2022/06/01 11:30:18;;;;;;;71.83;67.40;;;;;;;15.15;100.00;101734.89;2022284;70;26630;-73
2022/06/01 11:32:52;;;;;;;73.53;68.53;;;;;;;14.50;100.00;101741.31;1939585;73;26215;-72
2022/06/01 11:35:28;;;;;;;77.00;71.70;;;;;;;14.06;100.00;101739.86;1935809;73;26203;-71
2022/06/01 11:38:03;;;;;;;74.90;69.63;;;;;;;14.12;100.00;101749.86;1943422;73;26192;-72
2022/06/01 11:40:40;;;;;;;71.80;66.70;;;;;;;13.86;100.00;101751.13;2015584;70;26677;-71
2022/06/01 11:43:16;;;;;;;72.00;66.97;;;;;;;13.91;100.00;101752.48;1934748;73;26216;-71
2022/06/01 11:45:50;;;;;;;69.37;64.20;;;;;;;13.98;100.00;101756.66;1940227;73;26716;-72
2022/06/01 11:48:26;;;;;;;70.47;65.37;;;;;;;14.23;100.00;101759.05;1937364;73;26279;-72
2022/06/01 11:51:05;;;;;;;77.10;71.70;;;;;;;14.28;100.00;101764.61;1962701;72;26238;-73
2022/06/01 11:53:39;;;;;;;82.40;76.97;;;;;;;14.37;100.00;101762.36;1970002;72;26253;-73
2022/06/01 11:56:13;;;;;;;96.23;89.70;;;;;;;14.56;100.00;101763.91;1967638;72;26322;-72
2022/06/01 11:58:47;;;;;;;96.73;89.90;;;;;;;14.80;100.00;101762.63;1934043;73;26200;-72
2022/06/01 12:01:21;;;;;;;95.67;89.40;;;;;;;14.80;100.00;101760.67;1937952;73;26188;-72
2022/06/01 12:03:57;;;;;;;76.00;70.70;;;;;;;15.12;100.00;101757.31;1937235;73;26701;-73
2022/06/01 12:10:01;;;;;;;71.47;66.27;;;;;;;15.12;100.00;101750.88;2048735;69;33124;-73
2022/06/01 12:12:49;;;;;;;73.63;68.43;;;;;;;15.52;100.00;101758.08;1936106;73;26188;-73
2022/06/01 12:15:29;;;;;;;71.70;66.70;;;;;;;15.41;100.00;101759.55;1935854;73;26327;-74
2022/06/01 12:18:10;;;;;;;68.63;63.83;;;;;;;15.35;100.00;101757.95;1965828;72;26270;-73
2022/06/01 12:21:19;;;;;;;72.10;67.30;;;;;;;15.29;100.00;101754.91;1936784;73;26791;-72
2022/06/01 12:30:14;;;;;;;71.87;67.07;;;;;;;15.68;100.00;101753.98;2013250;70;26290;-73
2022/06/01 12:33:20;;;;;;;68.87;64.27;;;;;;;15.78;100.00;101747.70;2018341;70;26187;-72
2022/06/01 12:35:55;;;;;;;68.87;64.47;;;;;;;15.87;100.00;101746.48;2016314;71;26247;-73